Time;durP1;ratioP1;P1;durP2;ratioP2;P2;SDS_P1;SDS_P2;PMS_P1;PMS_P2;Temp;Humidity;BMP_temperature;BMP_pressure;BME280_temperature;BME280_humidity;BME280_pressure;Samples;Min_cycle;Max_cycle;Signal;HPM_P1;HPM_P2
2023/04/21 03:01:25;;;;;;;27.90;13.85;;;8.60;99.90;;;;;;5528818;23;20057;-76
2023/04/21 03:03:51;;;;;;;23.30;14.23;;;8.60;99.90;;;;;;4976711;28;20045;-75
2023/04/21 03:06:16;;;;;;;23.98;14.02;;;8.60;99.90;;;;;;4994241;28;20117;-77
2023/04/21 03:08:42;;;;;;;29.75;14.55;;;8.60;99.90;;;;;;4977354;28;20085;-78
2023/04/21 03:11:08;;;;;;;26.88;14.27;;;8.60;99.90;;;;;;4977242;28;20050;-75
2023/04/21 03:13:34;;;;;;;27.10;14.00;;;8.50;99.90;;;;;;4976870;28;20169;-77
2023/04/21 03:15:59;;;;;;;28.40;14.50;;;8.50;99.90;;;;;;4976897;28;20045;-76
2023/04/21 03:18:25;;;;;;;28.20;14.68;;;8.50;99.90;;;;;;4976645;28;20558;-76
2023/04/21 03:20:51;;;;;;;26.77;14.00;;;8.50;99.90;;;;;;4976933;28;20038;-76
2023/04/21 03:23:16;;;;;;;27.58;13.82;;;8.60;99.90;;;;;;4994554;28;20034;-77
2023/04/21 03:25:42;;;;;;;22.75;13.13;;;8.60;99.90;;;;;;4976694;28;20064;-75
2023/04/21 03:28:08;;;;;;;24.75;13.45;;;8.70;99.90;;;;;;4976169;28;20096;-74
2023/04/21 03:30:34;;;;;;;23.85;13.40;;;8.70;99.90;;;;;;4976925;28;20129;-76
2023/04/21 03:32:59;;;;;;;30.88;15.85;;;8.70;99.90;;;;;;4976573;28;20446;-77
2023/04/21 03:35:26;;;;;;;25.02;13.30;;;8.80;99.90;;;;;;4976586;28;20043;-75
2023/04/21 03:37:51;;;;;;;26.42;13.63;;;8.80;99.90;;;;;;4976336;28;20038;-75
2023/04/21 03:40:17;;;;;;;23.98;12.95;;;8.80;99.90;;;;;;4976578;28;20043;-75
2023/04/21 03:42:42;;;;;;;21.95;13.30;;;8.80;99.90;;;;;;4993828;28;20477;-76
2023/04/21 03:45:09;;;;;;;21.67;12.30;;;8.90;99.90;;;;;;4994089;28;20110;-77
2023/04/21 03:47:35;;;;;;;24.63;12.80;;;8.90;99.90;;;;;;4976230;28;20046;-76
2023/04/21 03:50:04;;;;;;;23.77;13.15;;;8.90;99.90;;;;;;4976166;28;20052;-75
2023/04/21 03:52:31;;;;;;;21.73;13.02;;;8.90;99.90;;;;;;4993451;28;20042;-76
2023/04/21 03:54:56;;;;;;;21.63;13.57;;;8.90;99.90;;;;;;4976284;28;20043;-79
2023/04/21 03:57:22;;;;;;;24.05;13.05;;;8.90;99.90;;;;;;4994215;28;20034;-76
2023/04/21 03:59:47;;;;;;;20.70;12.65;;;8.90;99.90;;;;;;4977573;28;20121;-76
2023/04/21 04:02:13;;;;;;;23.13;13.40;;;9.00;99.90;;;;;;4997068;28;20059;-76
2023/04/21 04:04:39;;;;;;;20.35;13.13;;;8.90;99.90;;;;;;4980461;28;20046;-77
2023/04/21 04:07:06;;;;;;;24.08;13.27;;;8.90;99.90;;;;;;4980172;28;20049;-75
2023/04/21 04:09:32;;;;;;;24.42;12.95;;;8.90;99.90;;;;;;4979840;28;20125;-75
2023/04/21 04:11:57;;;;;;;21.70;12.48;;;8.90;99.90;;;;;;4997128;28;20121;-75
2023/04/21 04:14:23;;;;;;;21.23;12.68;;;8.90;99.90;;;;;;4979452;28;20050;-76
2023/04/21 04:16:49;;;;;;;25.02;12.85;;;8.90;99.90;;;;;;4979661;28;20042;-76
2023/04/21 04:19:15;;;;;;;27.25;13.55;;;9.00;99.90;;;;;;4979712;28;20160;-75
2023/04/21 04:21:40;;;;;;;27.08;13.07;;;9.00;99.90;;;;;;4979177;28;20038;-75
2023/04/21 04:24:07;;;;;;;20.35;12.88;;;9.00;99.90;;;;;;4997165;28;20045;-77
2023/04/21 04:26:33;;;;;;;20.90;12.75;;;9.00;99.90;;;;;;4979425;28;20074;-76
2023/04/21 04:29:01;;;;;;;22.65;13.48;;;9.00;99.90;;;;;;4979495;28;20123;-77
2023/04/21 04:31:29;;;;;;;23.65;12.80;;;8.90;99.90;;;;;;4996835;28;20077;-78
2023/04/21 04:33:55;;;;;;;25.00;12.40;;;8.90;99.90;;;;;;4997220;28;20049;-76
2023/04/21 04:36:22;;;;;;;22.73;13.10;;;8.90;99.90;;;;;;4979500;28;20469;-76
2023/04/21 04:38:48;;;;;;;21.23;13.48;;;8.90;99.90;;;;;;4979200;28;20501;-77
2023/04/21 04:41:15;;;;;;;22.13;13.77;;;8.90;99.90;;;;;;4978899;28;20166;-75
2023/04/21 04:43:41;;;;;;;22.98;13.63;;;8.90;99.90;;;;;;4963076;28;20124;-75
2023/04/21 04:46:08;;;;;;;23.92;13.88;;;8.80;99.90;;;;;;4996946;28;20046;-76
2023/04/21 04:48:34;;;;;;;24.70;12.93;;;8.80;99.90;;;;;;4979306;28;20457;-77
2023/04/21 04:50:59;;;;;;;25.35;13.45;;;8.80;99.90;;;;;;4978578;28;20047;-75
2023/04/21 04:53:27;;;;;;;26.50;12.98;;;8.80;99.90;;;;;;4979255;28;20084;-77
2023/04/21 04:55:53;;;;;;;25.00;14.00;;;8.80;99.90;;;;;;4978949;28;20486;-77
2023/04/21 04:58:19;;;;;;;21.63;13.23;;;8.80;99.90;;;;;;4996596;28;20052;-76
2023/04/21 05:00:44;;;;;;;24.02;13.30;;;8.80;99.90;;;;;;4978610;28;20124;-76
2023/04/21 05:03:10;;;;;;;21.55;13.55;;;8.80;99.90;;;;;;4978674;28;20042;-77
2023/04/21 05:05:35;;;;;;;23.27;13.52;;;8.70;99.90;;;;;;4978413;28;20142;-76
2023/04/21 05:08:01;;;;;;;28.77;14.65;;;8.80;99.90;;;;;;4978745;28;20053;-76
2023/04/21 05:10:27;;;;;;;22.15;13.13;;;8.70;99.90;;;;;;4962577;28;20042;-76
2023/04/21 05:12:52;;;;;;;29.27;14.38;;;8.80;99.90;;;;;;4977697;28;20050;-76
2023/04/21 05:15:18;;;;;;;22.40;13.90;;;8.70;99.90;;;;;;4996105;28;20121;-76
2023/04/21 05:17:44;;;;;;;22.45;13.45;;;8.80;99.90;;;;;;4996295;28;20418;-75
2023/04/21 05:20:10;;;;;;;25.08;14.20;;;8.80;99.90;;;;;;4978887;28;20069;-77
2023/04/21 05:22:37;;;;;;;23.80;14.07;;;8.80;99.90;;;;;;4996867;28;20427;-75
2023/04/21 05:25:03;;;;;;;25.05;13.93;;;8.80;99.90;;;;;;4996040;28;20046;-75
2023/04/21 05:27:29;;;;;;;22.75;13.38;;;8.80;99.90;;;;;;4978431;28;20121;-76
2023/04/21 05:29:55;;;;;;;24.13;13.23;;;8.90;99.90;;;;;;4995315;28;20125;-75
2023/04/21 05:32:21;;;;;;;25.73;13.95;;;8.90;99.90;;;;;;4995560;28;20042;-78
2023/04/21 05:34:46;;;;;;;22.23;13.48;;;8.90;99.90;;;;;;4996125;28;20057;-76
2023/04/21 05:37:12;;;;;;;26.05;12.77;;;8.90;99.90;;;;;;4979189;28;20356;-77
2023/04/21 05:39:37;;;;;;;22.77;13.82;;;9.00;99.90;;;;;;4996042;28;20390;-77
2023/04/21 05:42:03;;;;;;;24.65;13.15;;;9.00;99.90;;;;;;4977933;28;20053;-75
2023/04/21 05:44:29;;;;;;;23.55;13.23;;;9.00;99.90;;;;;;4977949;28;20042;-76
2023/04/21 05:46:54;;;;;;;25.45;13.13;;;9.00;99.90;;;;;;4978142;28;20045;-76
2023/04/21 05:49:20;;;;;;;22.67;13.05;;;9.10;99.90;;;;;;4977950;28;20177;-79
2023/04/21 05:51:46;;;;;;;27.50;14.05;;;9.10;99.90;;;;;;4995205;28;20042;-76
2023/04/21 05:54:11;;;;;;;25.30;13.20;;;9.10;99.90;;;;;;4962684;28;20344;-78
2023/04/21 05:56:37;;;;;;;24.92;13.27;;;9.20;99.90;;;;;;4995240;28;20094;-75
2023/04/21 05:59:03;;;;;;;27.13;13.55;;;9.20;99.90;;;;;;4978046;28;20100;-75
2023/04/21 06:01:28;;;;;;;24.38;12.90;;;9.20;99.90;;;;;;4977677;28;20070;-75
2023/04/21 06:03:54;;;;;;;23.02;12.13;;;9.20;99.90;;;;;;4977894;28;20073;-76
2023/04/21 06:06:20;;;;;;;23.10;13.18;;;9.30;99.90;;;;;;4977579;28;20050;-78
2023/04/21 06:08:45;;;;;;;22.17;12.30;;;9.30;99.90;;;;;;4995188;28;20043;-77
2023/04/21 06:11:11;;;;;;;24.85;12.48;;;9.40;99.90;;;;;;4995362;28;20046;-76
2023/04/21 06:13:36;;;;;;;20.30;12.55;;;9.40;99.90;;;;;;4977582;28;20042;-76
2023/04/21 06:16:03;;;;;;;22.95;12.60;;;9.40;99.90;;;;;;4977160;28;20416;-75
2023/04/21 06:18:29;;;;;;;21.05;11.65;;;9.40;99.90;;;;;;4977712;28;20494;-75
2023/04/21 06:20:55;;;;;;;23.05;12.23;;;9.50;99.90;;;;;;4977596;28;20073;-76
2023/04/21 06:23:21;;;;;;;21.55;12.40;;;9.60;99.90;;;;;;4977451;28;20049;-76
2023/04/21 06:25:58;;;;;;;20.65;12.25;;;9.60;99.90;;;;;;4977332;28;20061;-76
2023/04/21 06:28:23;;;;;;;19.73;11.15;;;9.70;99.90;;;;;;4961292;28;20043;-75
2023/04/21 06:30:49;;;;;;;22.20;11.57;;;9.70;99.90;;;;;;4978108;28;20030;-76
2023/04/21 06:33:14;;;;;;;20.40;12.23;;;9.80;99.90;;;;;;4961106;28;20482;-76
2023/04/21 06:35:40;;;;;;;23.52;12.02;;;9.90;99.90;;;;;;4977013;28;20034;-74
2023/04/21 06:38:07;;;;;;;23.27;12.85;;;10.00;99.90;;;;;;4994710;28;20034;-76
2023/04/21 06:40:33;;;;;;;18.42;10.55;;;10.00;99.90;;;;;;4994535;28;20066;-76
2023/04/21 06:42:59;;;;;;;18.58;11.30;;;10.10;99.90;;;;;;4994425;28;20066;-76
2023/04/21 06:45:25;;;;;;;21.05;11.82;;;10.20;99.90;;;;;;4977133;28;20042;-76
2023/04/21 06:47:50;;;;;;;24.15;11.20;;;10.20;99.90;;;;;;4994511;28;20092;-73
2023/04/21 06:50:16;;;;;;;20.42;11.65;;;10.30;99.90;;;;;;4976871;28;20049;-75
2023/04/21 06:52:41;;;;;;;18.42;10.88;;;10.40;99.90;;;;;;4976785;28;20136;-78
2023/04/21 06:55:07;;;;;;;20.25;10.77;;;10.50;99.90;;;;;;4994264;28;20038;-74
2023/04/21 06:57:33;;;;;;;19.40;11.00;;;10.60;99.90;;;;;;4977026;28;20066;-77
2023/04/21 06:59:59;;;;;;;21.73;10.73;;;10.70;99.90;;;;;;4976644;28;20060;-76
2023/04/21 07:02:24;;;;;;;22.60;10.77;;;10.80;99.90;;;;;;4996337;28;20034;-77
2023/04/21 07:04:50;;;;;;;23.80;10.63;;;10.80;99.90;;;;;;4979908;28;20038;-75
2023/04/21 07:07:16;;;;;;;18.80;11.32;;;10.90;99.90;;;;;;4977149;28;20050;-74
2023/04/21 07:09:41;;;;;;;20.38;10.68;;;10.90;99.90;;;;;;4994508;28;20121;-77
2023/04/21 07:12:07;;;;;;;20.52;11.23;;;11.00;99.90;;;;;;4976775;28;20046;-75
2023/04/21 07:14:33;;;;;;;18.98;11.88;;;11.00;99.90;;;;;;4994903;28;20126;-77
2023/04/21 07:16:58;;;;;;;20.02;11.65;;;11.10;99.90;;;;;;4994368;28;20100;-76
2023/04/21 07:19:24;;;;;;;17.60;10.82;;;11.10;99.90;;;;;;4960593;28;20077;-78
2023/04/21 07:21:50;;;;;;;27.02;10.65;;;11.10;99.90;;;;;;4976377;28;20062;-76
2023/04/21 07:24:15;;;;;;;22.08;10.82;;;11.10;99.90;;;;;;4977041;28;20042;-76
2023/04/21 07:26:41;;;;;;;18.90;10.80;;;11.10;99.90;;;;;;4960654;28;20034;-74
2023/04/21 07:29:07;;;;;;;17.85;10.50;;;11.10;99.90;;;;;;4977036;28;20136;-76
2023/04/21 07:31:32;;;;;;;19.75;11.10;;;11.10;99.90;;;;;;4976170;28;20043;-75
2023/04/21 07:33:58;;;;;;;17.70;12.57;;;11.20;99.90;;;;;;4976948;28;20050;-76
2023/04/21 07:36:25;;;;;;;18.88;10.63;;;11.20;99.90;;;;;;4998586;28;20117;-75
2023/04/21 07:38:50;;;;;;;22.88;10.55;;;11.30;99.90;;;;;;4981213;28;20046;-77
2023/04/21 07:41:16;;;;;;;18.98;10.10;;;11.40;99.90;;;;;;4998289;28;20034;-77
2023/04/21 07:43:41;;;;;;;24.70;11.63;;;11.50;99.90;;;;;;4998127;28;20026;-77
2023/04/21 07:46:07;;;;;;;19.58;10.48;;;11.50;99.90;;;;;;4998330;28;20501;-76
2023/04/21 07:48:33;;;;;;;19.92;10.50;;;11.60;99.90;;;;;;4980336;28;20053;-76
2023/04/21 07:50:59;;;;;;;19.20;11.02;;;11.70;99.90;;;;;;4979810;28;20042;-77
2023/04/21 07:53:28;;;;;;;23.38;11.00;;;11.70;99.90;;;;;;4997715;28;20061;-75
2023/04/21 07:55:53;;;;;;;20.65;12.15;;;11.80;99.90;;;;;;4997695;28;20122;-75
2023/04/21 07:58:20;;;;;;;18.83;10.73;;;11.90;99.90;;;;;;4998036;28;20055;-76
2023/04/21 08:00:46;;;;;;;21.30;10.85;;;12.00;99.90;;;;;;4963884;28;20043;-74
2023/04/21 08:03:11;;;;;;;20.90;11.45;;;12.10;99.90;;;;;;4980293;28;20050;-77
2023/04/21 08:05:37;;;;;;;21.58;10.98;;;12.10;99.90;;;;;;4997802;28;20541;-74
2023/04/21 08:08:03;;;;;;;18.13;13.07;;;12.30;99.90;;;;;;4979857;28;20049;-77
2023/04/21 08:10:28;;;;;;;22.15;13.20;;;12.30;99.90;;;;;;4997725;28;20342;-76
2023/04/21 08:12:54;;;;;;;20.52;12.93;;;12.40;99.90;;;;;;4979831;28;20046;-76
2023/04/21 08:15:20;;;;;;;21.25;13.73;;;12.40;99.90;;;;;;4996558;28;20048;-75
2023/04/21 08:17:46;;;;;;;19.60;14.05;;;12.50;99.90;;;;;;4979203;28;20541;-74
2023/04/21 08:20:12;;;;;;;17.52;11.93;;;12.50;99.90;;;;;;4997039;28;20046;-76
2023/04/21 08:22:38;;;;;;;21.80;15.98;;;12.60;99.90;;;;;;4979745;28;20055;-75
2023/04/21 08:25:04;;;;;;;19.60;11.13;;;12.70;99.90;;;;;;4979522;28;20093;-78
2023/04/21 08:27:30;;;;;;;21.70;15.43;;;12.80;99.90;;;;;;4963529;28;20458;-76
2023/04/21 08:29:56;;;;;;;21.85;14.38;;;12.80;99.90;;;;;;4979331;28;20054;-76
2023/04/21 08:32:23;;;;;;;21.95;17.50;;;12.90;99.90;;;;;;4979842;28;20180;-77
2023/04/21 08:34:53;;;;;;;27.02;19.98;;;13.00;99.90;;;;;;4979471;28;20061;-77
2023/04/21 08:37:20;;;;;;;26.27;21.75;;;13.10;99.90;;;;;;4979507;28;20061;-76
2023/04/21 08:39:45;;;;;;;24.30;18.35;;;13.20;99.90;;;;;;4996782;28;20050;-74
2023/04/21 08:42:18;;;;;;;23.95;21.30;;;13.20;99.90;;;;;;4979256;28;20486;-77
2023/04/21 08:44:45;;;;;;;22.58;17.83;;;13.40;99.90;;;;;;4996730;28;20074;-75
2023/04/21 08:47:11;;;;;;;26.73;20.60;;;13.50;99.90;;;;;;4995835;28;20057;-78
2023/04/21 08:49:38;;;;;;;25.05;21.83;;;13.70;99.90;;;;;;4996707;28;20038;-77
2023/04/21 08:52:05;;;;;;;28.05;20.85;;;13.90;99.90;;;;;;4996698;28;20096;-75
2023/04/21 08:54:31;;;;;;;34.60;31.05;;;14.10;99.90;;;;;;4979324;28;20441;-77
2023/04/21 08:56:57;;;;;;;34.22;30.50;;;14.20;99.90;;;;;;4978836;28;20046;-76
2023/04/21 08:59:23;;;;;;;45.47;40.95;;;14.40;99.90;;;;;;4978874;28;20104;-77
2023/04/21 09:02:08;;;;;;;45.63;41.40;;;14.50;99.90;;;;;;4978581;28;20038;-75
2023/04/21 09:04:36;;;;;;;29.85;26.33;;;14.70;99.90;;;;;;4979388;28;20475;-76
2023/04/21 09:07:02;;;;;;;53.90;49.17;;;14.70;99.90;;;;;;4979309;28;20046;-76
2023/04/21 09:09:28;;;;;;;56.55;51.67;;;14.90;99.90;;;;;;4996927;28;20042;-77
2023/04/21 09:11:56;;;;;;;32.70;29.42;;;15.00;99.90;;;;;;4963001;28;20203;-77
2023/04/21 09:14:21;;;;;;;56.38;51.30;;;15.10;99.90;;;;;;4978670;28;20050;-76
2023/04/21 09:17:02;;;;;;;53.15;48.35;;;15.20;99.90;;;;;;4979109;28;20046;-76
2023/04/21 09:19:28;;;;;;;46.55;42.40;;;15.30;99.90;;;;;;4962850;28;20042;-76
2023/04/21 09:21:54;;;;;;;46.17;41.63;;;15.40;99.90;;;;;;4996424;28;20398;-78
2023/04/21 09:24:19;;;;;;;68.47;62.55;;;15.60;99.90;;;;;;4978934;28;20049;-76
2023/04/21 09:26:50;;;;;;;45.53;41.17;;;15.80;99.90;;;;;;4978856;28;20100;-77
2023/04/21 09:29:16;;;;;;;41.35;37.03;;;16.10;99.90;;;;;;4996389;28;20046;-76
2023/04/21 09:31:43;;;;;;;69.20;62.35;;;16.30;99.90;;;;;;4978595;28;20486;-77
2023/04/21 09:34:20;;;;;;;52.72;47.13;;;16.40;99.90;;;;;;4978856;28;20054;-78
2023/04/21 09:36:46;;;;;;;104.25;95.13;;;16.40;99.90;;;;;;4978957;28;20218;-77
2023/04/21 09:39:12;;;;;;;86.65;78.50;;;16.60;99.90;;;;;;4979488;28;20050;-76
2023/04/21 09:41:38;;;;;;;76.70;69.50;;;16.90;99.90;;;;;;4978211;28;20038;-78
2023/04/21 09:44:04;;;;;;;72.30;65.93;;;17.10;99.90;;;;;;4962333;28;20097;-77
2023/04/21 09:46:32;;;;;;;59.00;53.42;;;17.20;99.90;;;;;;4978576;28;20439;-75
2023/04/21 09:49:02;;;;;;;55.72;50.30;;;17.20;99.90;;;;;;4995456;28;20117;-78
2023/04/21 09:51:30;;;;;;;88.22;80.10;;;17.10;99.90;;;;;;4978522;28;20089;-77
2023/04/21 09:54:03;;;;;;;55.20;49.60;;;17.40;99.90;;;;;;4978130;28;20052;-75
2023/04/21 09:56:35;;;;;;;69.60;63.00;;;18.00;99.90;;;;;;4979040;28;20046;-76
2023/04/21 09:59:05;;;;;;;89.47;81.32;;;18.70;99.90;;;;;;4977489;28;20046;-77
2023/04/21 10:01:31;;;;;;;59.85;54.25;;;19.20;99.90;;;;;;4995290;28;20154;-76
2023/04/21 10:03:57;;;;;;;73.65;66.65;;;19.50;99.90;;;;;;4995623;28;20049;-77
2023/04/21 10:06:23;;;;;;;51.03;46.00;;;19.30;99.90;;;;;;4961955;28;20046;-79
2023/04/21 10:08:49;;;;;;;41.13;37.20;;;18.80;99.90;;;;;;4977500;28;20104;-77
2023/04/21 10:11:17;;;;;;;26.55;23.73;;;18.60;99.90;;;;;;4995264;28;20089;-78
2023/04/21 10:13:42;;;;;;;29.90;26.80;;;18.80;99.90;;;;;;4977573;28;20130;-76
2023/04/21 10:16:09;;;;;;;34.17;31.02;;;19.00;99.90;;;;;;4977787;28;20128;-78
2023/04/21 10:18:42;;;;;;;29.80;26.73;;;19.10;99.90;;;;;;4995355;28;20077;-78
2023/04/21 10:21:09;;;;;;;32.42;29.08;;;19.20;99.90;;;;;;4978332;28;20122;-78
2023/04/21 10:23:45;;;;;;;39.42;35.60;;;18.90;99.90;;;;;;4977217;28;20081;-77
2023/04/21 10:26:23;;;;;;;25.60;21.92;;;18.80;99.90;;;;;;4976940;28;20042;-78
2023/04/21 10:29:05;;;;;;;31.13;28.30;;;18.50;99.90;;;;;;4977401;28;20046;-77
2023/04/21 10:31:36;;;;;;;20.67;13.35;;;18.20;99.90;;;;;;4976903;28;20093;-78
2023/04/21 10:34:05;;;;;;;22.48;19.08;;;18.10;99.90;;;;;;4977547;28;20050;-77
2023/04/21 10:36:33;;;;;;;24.48;16.38;;;18.40;99.90;;;;;;4977609;28;20057;-77
2023/04/21 10:39:02;;;;;;;21.08;18.83;;;18.50;99.90;;;;;;4976678;28;20042;-78
2023/04/21 10:41:29;;;;;;;17.98;11.45;;;18.40;99.90;;;;;;4994915;28;20048;-78
2023/04/21 10:44:15;;;;;;;17.17;15.23;;;18.20;99.90;;;;;;4977123;28;20034;-78
2023/04/21 10:46:49;;;;;;;21.38;13.93;;;18.00;99.90;;;;;;4994337;28;20065;-77
2023/04/21 10:49:23;;;;;;;14.97;10.63;;;17.80;99.90;;;;;;4994452;28;20034;-76
2023/04/21 10:51:58;;;;;;;19.90;12.93;;;17.70;99.90;;;;;;4976635;28;20134;-77
2023/04/21 10:54:24;;;;;;;21.38;15.48;;;17.50;99.90;;;;;;4976537;28;20580;-78
2023/04/21 10:56:55;;;;;;;19.88;12.75;;;17.60;99.90;;;;;;4977227;28;20042;-76
2023/04/21 10:59:21;;;;;;;17.77;14.90;;;17.70;99.90;;;;;;4994367;28;20136;-77
2023/04/21 11:01:47;;;;;;;25.67;13.07;;;17.80;99.90;;;;;;4994415;28;20085;-76
2023/04/21 11:04:16;;;;;;;22.77;15.10;;;17.90;99.90;;;;;;4960897;28;20106;-78
2023/04/21 11:06:43;;;;;;;21.65;11.05;;;17.90;99.90;;;;;;4976693;28;20379;-78
2023/04/21 11:09:08;;;;;;;18.77;11.45;;;17.80;99.90;;;;;;4976287;28;20129;-76
2023/04/21 11:11:35;;;;;;;22.33;15.05;;;17.90;99.90;;;;;;4976941;28;20489;-78
2023/04/21 11:14:02;;;;;;;17.58;12.40;;;18.00;99.90;;;;;;4995356;28;20126;-77
2023/04/21 11:16:28;;;;;;;20.45;13.45;;;18.00;99.90;;;;;;4994672;28;20164;-75
2023/04/21 11:18:55;;;;;;;21.70;13.20;;;18.00;99.90;;;;;;4994759;28;20553;-75
2023/04/21 11:21:23;;;;;;;25.83;15.15;;;18.00;99.90;;;;;;4994338;28;20478;-77
2023/04/21 11:23:50;;;;;;;16.73;10.57;;;18.00;99.90;;;;;;4976736;28;20099;-77
2023/04/21 11:26:16;;;;;;;22.05;14.45;;;18.00;99.90;;;;;;4977288;28;20038;-77
2023/04/21 11:28:42;;;;;;;17.13;11.32;;;18.10;99.90;;;;;;4994696;28;20049;-76
2023/04/21 11:31:08;;;;;;;16.35;11.75;;;18.30;99.90;;;;;;4960675;28;20043;-75
2023/04/21 11:33:37;;;;;;;23.13;10.88;;;18.40;99.90;;;;;;4976665;28;20049;-76
2023/04/21 11:36:07;;;;;;;17.58;12.15;;;18.30;99.90;;;;;;4976793;28;20050;-77
2023/04/21 11:38:37;;;;;;;22.73;12.88;;;18.10;99.90;;;;;;4976580;28;20052;-76
2023/04/21 11:41:03;;;;;;;21.42;12.88;;;18.10;99.90;;;;;;4994217;28;20042;-78
2023/04/21 11:43:29;;;;;;;21.00;13.88;;;18.30;99.90;;;;;;4994433;28;20035;-77
2023/04/21 11:46:09;;;;;;;19.33;11.65;;;18.50;99.90;;;;;;4993863;28;20486;-80
2023/04/21 11:48:35;;;;;;;18.73;11.27;;;18.70;99.90;;;;;;4993925;28;20125;-76
2023/04/21 11:51:01;;;;;;;18.77;11.57;;;18.70;99.90;;;;;;4993820;28;20070;-77
2023/04/21 11:53:28;;;;;;;21.40;11.57;;;18.60;99.90;;;;;;4993695;28;20557;-77
2023/04/21 11:55:55;;;;;;;17.08;11.38;;;18.60;99.90;;;;;;4959910;28;20057;-78
2023/04/21 11:58:21;;;;;;;20.67;12.85;;;18.60;99.90;;;;;;4976431;28;20046;-77
2023/04/21 12:00:46;;;;;;;18.55;12.02;;;18.50;99.90;;;;;;4976526;28;20130;-78
2023/04/21 12:03:12;;;;;;;21.27;11.77;;;18.50;99.90;;;;;;4976307;28;20113;-76
2023/04/21 12:05:38;;;;;;;22.65;13.85;;;18.40;99.90;;;;;;4993906;28;20117;-77
2023/04/21 12:08:05;;;;;;;16.92;12.23;;;18.30;99.90;;;;;;4976343;28;20505;-77
2023/04/21 12:10:31;;;;;;;17.98;13.13;;;18.20;99.90;;;;;;4976726;28;20069;-76
2023/04/21 12:12:56;;;;;;;17.85;11.07;;;18.20;99.90;;;;;;4976596;28;20039;-77
2023/04/21 12:15:22;;;;;;;17.92;12.18;;;18.20;99.90;;;;;;4976734;28;20574;-77
2023/04/21 12:17:52;;;;;;;19.15;12.30;;;18.30;99.90;;;;;;4960359;28;20509;-76
2023/04/21 12:20:23;;;;;;;17.70;11.88;;;18.50;99.90;;;;;;4960011;28;20069;-76
2023/04/21 12:22:49;;;;;;;16.95;10.73;;;18.60;99.90;;;;;;4997477;28;20389;-77
2023/04/21 12:25:15;;;;;;;15.35;11.57;;;18.60;99.90;;;;;;4963964;28;20497;-77
2023/04/21 12:27:57;;;;;;;15.50;11.40;;;18.70;99.90;;;;;;4980251;28;20078;-75
2023/04/21 12:30:22;;;;;;;20.15;14.38;;;18.80;99.90;;;;;;4980105;28;20357;-78
2023/04/21 12:32:48;;;;;;;19.48;14.18;;;18.80;99.90;;;;;;4997665;28;20042;-77
2023/04/21 12:35:14;;;;;;;22.00;13.50;;;18.80;99.90;;;;;;4979450;28;20054;-78
2023/04/21 12:37:40;;;;;;;20.45;11.90;;;18.80;99.90;;;;;;4997869;28;20093;-73
2023/04/21 12:40:06;;;;;;;15.38;10.90;;;18.80;99.90;;;;;;5003213;28;20425;-73
2023/04/21 12:42:32;;;;;;;16.65;10.70;;;18.80;99.90;;;;;;5002995;28;20478;-76
2023/04/21 12:44:58;;;;;;;17.65;10.63;;;18.60;99.90;;;;;;4998371;28;20041;-77
2023/04/21 12:47:23;;;;;;;17.05;10.38;;;18.50;99.90;;;;;;4979732;28;20050;-78
2023/04/21 12:49:49;;;;;;;16.35;11.52;;;18.60;99.90;;;;;;4997302;28;20150;-76
2023/04/21 12:52:15;;;;;;;25.38;13.02;;;18.60;99.90;;;;;;4979570;28;20559;-76
2023/04/21 12:54:41;;;;;;;18.23;13.45;;;18.70;99.90;;;;;;4979474;28;20048;-76
2023/04/21 12:57:07;;;;;;;15.93;12.93;;;18.80;99.90;;;;;;4997215;28;20160;-77
2023/04/21 12:59:33;;;;;;;19.35;12.95;;;18.80;99.90;;;;;;4997079;28;20073;-78
2023/04/21 13:01:58;;;;;;;20.95;14.63;;;18.80;99.90;;;;;;4979011;28;20422;-75
2023/04/21 13:04:24;;;;;;;25.10;16.80;;;19.00;99.90;;;;;;4963140;28;20065;-76
2023/04/21 13:06:50;;;;;;;20.02;14.57;;;19.10;99.90;;;;;;4979520;28;20046;-79
2023/04/21 13:09:16;;;;;;;20.92;13.95;;;19.20;99.90;;;;;;4979065;28;20128;-76
2023/04/21 13:11:41;;;;;;;19.05;13.00;;;19.60;99.90;;;;;;4978920;28;20073;-77
2023/04/21 13:14:07;;;;;;;20.55;13.27;;;20.00;99.90;;;;;;4996463;28;20046;-76
2023/04/21 13:16:33;;;;;;;20.63;13.73;;;20.40;99.90;;;;;;4979121;28;20105;-77
2023/04/21 13:18:58;;;;;;;27.38;18.50;;;20.80;99.90;;;;;;4963399;28;20050;-76
2023/04/21 13:21:25;;;;;;;19.38;14.23;;;20.80;99.90;;;;;;4979201;28;20125;-77
2023/04/21 13:23:50;;;;;;;17.92;13.65;;;20.80;99.90;;;;;;4978824;28;20521;-77
2023/04/21 13:26:16;;;;;;;17.17;11.45;;;20.90;99.90;;;;;;4996704;28;20080;-77
2023/04/21 13:28:42;;;;;;;17.90;14.30;;;20.90;99.90;;;;;;4979028;28;20069;-78
2023/04/21 13:31:08;;;;;;;15.77;13.18;;;20.80;99.90;;;;;;4978882;28;20166;-77
2023/04/21 13:33:34;;;;;;;20.35;11.07;;;20.80;99.90;;;;;;4995871;28;20161;-77
2023/04/21 13:36:03;;;;;;;18.50;11.60;;;20.70;99.90;;;;;;4978939;28;20080;-77
2023/04/21 13:38:29;;;;;;;20.60;11.07;;;20.80;99.90;;;;;;4978668;28;20056;-77
2023/04/21 13:40:55;;;;;;;19.73;12.02;;;20.80;99.90;;;;;;4979077;28;20038;-77
2023/04/21 13:43:21;;;;;;;15.45;10.82;;;20.60;99.90;;;;;;4996451;28;20038;-77
2023/04/21 13:45:49;;;;;;;17.45;10.05;;;20.40;99.90;;;;;;4978877;28;20054;-76
2023/04/21 13:48:15;;;;;;;14.40;9.55;;;20.20;99.90;;;;;;4996332;28;20040;-77
2023/04/21 13:50:41;;;;;;;13.52;9.18;;;19.90;99.90;;;;;;4995971;28;20046;-76
2023/04/21 13:53:06;;;;;;;13.68;8.80;;;19.70;99.90;;;;;;4978119;28;20053;-77
2023/04/21 13:55:32;;;;;;;13.43;9.32;;;19.50;99.90;;;;;;4977860;28;20074;-78
2023/04/21 13:58:00;;;;;;;14.02;9.32;;;19.40;99.90;;;;;;4962277;28;20046;-76
2023/04/21 14:00:26;;;;;;;15.32;10.80;;;19.30;99.90;;;;;;4995245;28;20074;-78
2023/04/21 14:02:51;;;;;;;14.38;10.82;;;19.20;99.90;;;;;;4995850;28;20418;-77
2023/04/21 14:05:17;;;;;;;14.65;10.52;;;19.20;99.90;;;;;;4995335;28;20038;-76
2023/04/21 14:07:43;;;;;;;21.27;11.85;;;19.30;99.90;;;;;;4995791;28;20474;-79
2023/04/21 14:10:10;;;;;;;17.33;10.90;;;19.30;99.90;;;;;;4996656;28;20474;-80
2023/04/21 14:12:36;;;;;;;15.43;10.65;;;19.50;99.90;;;;;;4962115;28;20096;-78
2023/04/21 14:15:02;;;;;;;12.85;8.20;;;19.50;99.90;;;;;;4978145;28;20042;-78
2023/04/21 14:17:27;;;;;;;15.23;8.32;;;19.60;99.90;;;;;;4978016;28;20050;-76
2023/04/21 14:19:53;;;;;;;14.30;8.02;;;19.70;99.90;;;;;;4994920;28;20049;-77
2023/04/21 14:22:19;;;;;;;12.48;7.57;;;19.90;99.90;;;;;;4961273;28;20394;-77
2023/04/21 14:24:45;;;;;;;11.20;7.03;;;20.20;99.90;;;;;;4994748;28;20097;-77
2023/04/21 14:27:10;;;;;;;15.85;7.00;;;20.20;99.90;;;;;;4995098;28;20042;-78
2023/04/21 14:29:36;;;;;;;13.93;6.50;;;20.20;99.90;;;;;;4977423;28;20046;-78
2023/04/21 14:32:02;;;;;;;11.88;6.13;;;20.30;99.90;;;;;;4994841;28;20042;-78
2023/04/21 14:34:27;;;;;;;11.98;5.32;;;20.60;99.90;;;;;;4977021;28;20057;-77
2023/04/21 14:36:53;;;;;;;8.45;4.80;;;20.70;99.90;;;;;;4994365;28;20122;-76
2023/04/21 14:39:19;;;;;;;17.00;4.97;;;20.70;99.90;;;;;;4976884;28;20106;-78
2023/04/21 14:41:45;;;;;;;9.40;4.03;;;20.60;99.40;;;;;;4976577;28;20088;-76
2023/04/21 14:44:10;;;;;;;11.77;4.25;;;20.30;98.20;;;;;;4993443;28;20046;-75
2023/04/21 14:46:36;;;;;;;7.75;4.03;;;20.10;97.60;;;;;;4976392;28;20041;-76
2023/04/21 14:49:03;;;;;;;7.90;4.00;;;20.10;97.20;;;;;;4976540;28;20050;-78
2023/04/21 14:51:28;;;;;;;11.48;4.45;;;20.10;97.10;;;;;;4994186;28;20478;-78
2023/04/21 14:53:54;;;;;;;8.15;3.42;;;20.00;96.90;;;;;;4977002;28;20046;-78
2023/04/21 14:56:20;;;;;;;9.48;3.90;;;19.90;96.90;;;;;;4994090;28;20058;-79
2023/04/21 14:58:46;;;;;;;9.43;3.53;;;19.80;96.00;;;;;;4976615;28;20061;-76
2023/04/21 15:01:11;;;;;;;10.30;3.58;;;19.60;96.10;;;;;;4960667;28;20046;-75
2023/04/21 15:03:37;;;;;;;10.30;3.83;;;19.60;96.30;;;;;;4976951;28;20046;-79
2023/04/21 15:06:03;;;;;;;10.80;3.38;;;19.60;96.00;;;;;;4976695;28;20443;-77
2023/04/21 15:08:29;;;;;;;22.60;4.00;;;19.50;95.60;;;;;;4976362;28;20049;-78
2023/04/21 15:10:55;;;;;;;8.98;3.45;;;19.50;95.60;;;;;;4993862;28;20046;-79
2023/04/21 15:13:21;;;;;;;10.30;3.20;;;19.60;95.20;;;;;;4976691;28;20050;-77
2023/04/21 15:15:48;;;;;;;8.95;3.10;;;19.60;94.90;;;;;;4993669;28;20034;-78
2023/04/21 15:18:14;;;;;;;10.38;4.00;;;19.60;94.70;;;;;;4960467;28;20046;-78
2023/04/21 15:20:41;;;;;;;7.68;3.03;;;19.60;94.60;;;;;;4976577;28;20049;-77
2023/04/21 15:23:07;;;;;;;8.10;3.15;;;19.60;94.30;;;;;;4994563;28;20045;-74
2023/04/21 15:25:32;;;;;;;7.03;3.42;;;19.50;94.30;;;;;;4977178;28;20046;-75
2023/04/21 15:27:58;;;;;;;5.93;3.42;;;19.50;94.40;;;;;;4993770;28;20629;-75